sensor_id;sensor_type;location;lat;lon;timestamp;temperature;humidity
41427;DHT22;27171;51.812;19.514;2022-10-23T00:00:32;13.00;99.90
41427;DHT22;27171;51.812;19.514;2022-10-23T00:03:34;13.00;99.90
41427;DHT22;27171;51.812;19.514;2022-10-23T00:06:35;13.00;99.90
41427;DHT22;27171;51.812;19.514;2022-10-23T00:09:37;13.00;99.90
41427;DHT22;27171;51.812;19.514;2022-10-23T00:12:38;13.00;99.90
41427;DHT22;27171;51.812;19.514;2022-10-23T00:15:39;13.00;99.90
41427;DHT22;27171;51.812;19.514;2022-10-23T00:18:41;13.00;99.90
41427;DHT22;27171;51.812;19.514;2022-10-23T00:21:42;13.00;99.90
41427;DHT22;27171;51.812;19.514;2022-10-23T00:24:44;13.00;99.90
41427;DHT22;27171;51.812;19.514;2022-10-23T00:27:45;13.00;99.90
41427;DHT22;27171;51.812;19.514;2022-10-23T00:30:46;13.00;99.90
41427;DHT22;27171;51.812;19.514;2022-10-23T00:33:50;13.00;99.90
41427;DHT22;27171;51.812;19.514;2022-10-23T00:36:52;13.00;99.90
41427;DHT22;27171;51.812;19.514;2022-10-23T00:39:53;13.00;99.90
41427;DHT22;27171;51.812;19.514;2022-10-23T00:42:54;13.00;99.90
41427;DHT22;27171;51.812;19.514;2022-10-23T00:45:56;13.00;99.90
41427;DHT22;27171;51.812;19.514;2022-10-23T00:48:58;12.90;99.90
41427;DHT22;27171;51.812;19.514;2022-10-23T00:52:02;12.90;99.90
41427;DHT22;27171;51.812;19.514;2022-10-23T00:55:04;12.90;99.90
41427;DHT22;27171;51.812;19.514;2022-10-23T00:58:06;12.90;99.90
41427;DHT22;27171;51.812;19.514;2022-10-23T01:01:17;12.90;99.90
41427;DHT22;27171;51.812;19.514;2022-10-23T01:04:18;12.90;99.90
41427;DHT22;27171;51.812;19.514;2022-10-23T01:07:32;12.90;99.90
41427;DHT22;27171;51.812;19.514;2022-10-23T01:10:41;12.90;99.90
41427;DHT22;27171;51.812;19.514;2022-10-23T01:14:02;12.90;99.90
41427;DHT22;27171;51.812;19.514;2022-10-23T01:17:15;12.90;99.90
41427;DHT22;27171;51.812;19.514;2022-10-23T01:33:16;12.80;99.90
41427;DHT22;27171;51.812;19.514;2022-10-23T01:36:26;12.80;99.90
41427;DHT22;27171;51.812;19.514;2022-10-23T01:39:37;12.80;99.90
41427;DHT22;27171;51.812;19.514;2022-10-23T01:42:47;12.80;99.90
41427;DHT22;27171;51.812;19.514;2022-10-23T01:45:59;12.80;99.90
41427;DHT22;27171;51.812;19.514;2022-10-23T01:49:03;12.80;99.90
41427;DHT22;27171;51.812;19.514;2022-10-23T01:52:07;12.70;99.90
41427;DHT22;27171;51.812;19.514;2022-10-23T01:55:12;12.70;99.90
41427;DHT22;27171;51.812;19.514;2022-10-23T01:58:14;12.70;99.90
41427;DHT22;27171;51.812;19.514;2022-10-23T02:01:19;12.70;99.90
41427;DHT22;27171;51.812;19.514;2022-10-23T02:04:30;12.70;99.90
41427;DHT22;27171;51.812;19.514;2022-10-23T02:07:34;12.70;99.90
41427;DHT22;27171;51.812;19.514;2022-10-23T02:17:59;12.60;99.90
41427;DHT22;27171;51.812;19.514;2022-10-23T02:21:12;12.60;99.90
41427;DHT22;27171;51.812;19.514;2022-10-23T02:24:17;12.60;99.90
41427;DHT22;27171;51.812;19.514;2022-10-23T02:27:37;12.60;99.90
41427;DHT22;27171;51.812;19.514;2022-10-23T02:30:44;12.60;99.90
41427;DHT22;27171;51.812;19.514;2022-10-23T02:33:47;12.60;99.90
41427;DHT22;27171;51.812;19.514;2022-10-23T02:36:49;12.70;99.90
41427;DHT22;27171;51.812;19.514;2022-10-23T02:39:54;12.70;99.90
41427;DHT22;27171;51.812;19.514;2022-10-23T02:43:17;12.60;99.90
41427;DHT22;27171;51.812;19.514;2022-10-23T02:50:14;12.70;99.90
41427;DHT22;27171;51.812;19.514;2022-10-23T02:57:04;12.70;99.90
41427;DHT22;27171;51.812;19.514;2022-10-23T03:00:10;12.70;99.90
41427;DHT22;27171;51.812;19.514;2022-10-23T03:03:18;12.70;99.90
41427;DHT22;27171;51.812;19.514;2022-10-23T03:06:22;12.70;99.90
41427;DHT22;27171;51.812;19.514;2022-10-23T03:09:27;12.70;99.90
41427;DHT22;27171;51.812;19.514;2022-10-23T03:12:28;12.70;99.90
41427;DHT22;27171;51.812;19.514;2022-10-23T03:15:29;12.70;99.90
41427;DHT22;27171;51.812;19.514;2022-10-23T03:18:30;12.70;99.90
41427;DHT22;27171;51.812;19.514;2022-10-23T03:21:33;12.80;99.90
41427;DHT22;27171;51.812;19.514;2022-10-23T03:24:36;12.80;99.90
41427;DHT22;27171;51.812;19.514;2022-10-23T03:27:38;12.80;99.90
41427;DHT22;27171;51.812;19.514;2022-10-23T03:30:42;12.80;99.90
41427;DHT22;27171;51.812;19.514;2022-10-23T03:33:43;12.80;99.90
41427;DHT22;27171;51.812;19.514;2022-10-23T03:36:46;12.80;99.90
41427;DHT22;27171;51.812;19.514;2022-10-23T03:39:48;12.80;99.90
41427;DHT22;27171;51.812;19.514;2022-10-23T03:42:50;12.80;99.90
41427;DHT22;27171;51.812;19.514;2022-10-23T03:45:55;12.80;99.90
41427;DHT22;27171;51.812;19.514;2022-10-23T03:48:59;12.80;99.90
41427;DHT22;27171;51.812;19.514;2022-10-23T03:52:00;12.80;99.90
41427;DHT22;27171;51.812;19.514;2022-10-23T03:55:02;12.80;99.90
41427;DHT22;27171;51.812;19.514;2022-10-23T03:58:03;12.80;99.90
41427;DHT22;27171;51.812;19.514;2022-10-23T04:01:04;12.80;99.90
41427;DHT22;27171;51.812;19.514;2022-10-23T04:04:05;12.80;99.90
41427;DHT22;27171;51.812;19.514;2022-10-23T04:07:08;12.80;99.90
41427;DHT22;27171;51.812;19.514;2022-10-23T04:10:10;12.80;99.90
41427;DHT22;27171;51.812;19.514;2022-10-23T04:13:11;12.80;99.90
41427;DHT22;27171;51.812;19.514;2022-10-23T04:16:12;12.80;99.90
41427;DHT22;27171;51.812;19.514;2022-10-23T04:19:13;12.80;99.90
41427;DHT22;27171;51.812;19.514;2022-10-23T04:22:15;12.80;99.90
41427;DHT22;27171;51.812;19.514;2022-10-23T04:25:16;12.80;99.90
41427;DHT22;27171;51.812;19.514;2022-10-23T04:28:18;12.80;99.90
41427;DHT22;27171;51.812;19.514;2022-10-23T04:31:20;12.80;99.90
41427;DHT22;27171;51.812;19.514;2022-10-23T04:34:21;12.80;99.90
41427;DHT22;27171;51.812;19.514;2022-10-23T04:37:22;12.80;99.90
41427;DHT22;27171;51.812;19.514;2022-10-23T04:40:23;12.80;99.90
41427;DHT22;27171;51.812;19.514;2022-10-23T04:43:27;12.80;99.90
41427;DHT22;27171;51.812;19.514;2022-10-23T04:46:28;12.80;99.90
41427;DHT22;27171;51.812;19.514;2022-10-23T04:49:30;12.80;99.90
41427;DHT22;27171;51.812;19.514;2022-10-23T04:52:45;12.80;99.90
41427;DHT22;27171;51.812;19.514;2022-10-23T04:56:00;12.80;99.90
41427;DHT22;27171;51.812;19.514;2022-10-23T04:59:12;12.90;99.90
41427;DHT22;27171;51.812;19.514;2022-10-23T05:02:15;12.90;99.90
41427;DHT22;27171;51.812;19.514;2022-10-23T05:05:16;12.90;99.90
41427;DHT22;27171;51.812;19.514;2022-10-23T05:08:17;12.90;99.90
41427;DHT22;27171;51.812;19.514;2022-10-23T05:11:38;12.90;99.90
41427;DHT22;27171;51.812;19.514;2022-10-23T05:14:42;12.90;99.90
41427;DHT22;27171;51.812;19.514;2022-10-23T05:17:45;12.90;99.90
41427;DHT22;27171;51.812;19.514;2022-10-23T05:20:49;13.00;99.90
41427;DHT22;27171;51.812;19.514;2022-10-23T05:23:52;13.00;99.90
41427;DHT22;27171;51.812;19.514;2022-10-23T05:26:54;13.00;99.90
41427;DHT22;27171;51.812;19.514;2022-10-23T05:29:56;13.00;99.90
41427;DHT22;27171;51.812;19.514;2022-10-23T05:33:01;13.00;99.90
41427;DHT22;27171;51.812;19.514;2022-10-23T05:36:05;13.10;99.90
41427;DHT22;27171;51.812;19.514;2022-10-23T05:39:07;13.10;99.90
41427;DHT22;27171;51.812;19.514;2022-10-23T05:42:10;13.10;99.90
41427;DHT22;27171;51.812;19.514;2022-10-23T05:45:12;13.10;99.90
41427;DHT22;27171;51.812;19.514;2022-10-23T05:48:27;13.10;99.90
41427;DHT22;27171;51.812;19.514;2022-10-23T05:51:48;13.20;99.90
41427;DHT22;27171;51.812;19.514;2022-10-23T05:55:16;13.20;99.90
41427;DHT22;27171;51.812;19.514;2022-10-23T05:58:31;13.20;99.90
41427;DHT22;27171;51.812;19.514;2022-10-23T06:01:43;13.30;99.90
41427;DHT22;27171;51.812;19.514;2022-10-23T06:04:47;13.30;99.90
41427;DHT22;27171;51.812;19.514;2022-10-23T06:08:12;13.30;99.90
41427;DHT22;27171;51.812;19.514;2022-10-23T06:11:15;13.30;99.90
41427;DHT22;27171;51.812;19.514;2022-10-23T06:14:25;13.30;99.90
41427;DHT22;27171;51.812;19.514;2022-10-23T06:17:28;13.30;99.90
41427;DHT22;27171;51.812;19.514;2022-10-23T06:20:29;13.30;99.90
41427;DHT22;27171;51.812;19.514;2022-10-23T06:23:42;13.40;99.90
41427;DHT22;27171;51.812;19.514;2022-10-23T06:26:57;13.40;99.90
41427;DHT22;27171;51.812;19.514;2022-10-23T06:30:12;13.40;99.90
41427;DHT22;27171;51.812;19.514;2022-10-23T06:33:13;13.40;99.90
41427;DHT22;27171;51.812;19.514;2022-10-23T06:36:15;13.40;99.90
41427;DHT22;27171;51.812;19.514;2022-10-23T06:39:17;13.40;99.90
41427;DHT22;27171;51.812;19.514;2022-10-23T06:42:44;13.40;99.90
41427;DHT22;27171;51.812;19.514;2022-10-23T06:46:05;13.40;99.90
41427;DHT22;27171;51.812;19.514;2022-10-23T06:49:33;13.30;99.90
41427;DHT22;27171;51.812;19.514;2022-10-23T06:52:36;13.30;99.90
41427;DHT22;27171;51.812;19.514;2022-10-23T06:55:38;13.30;99.90
41427;DHT22;27171;51.812;19.514;2022-10-23T06:58:40;13.30;99.90
41427;DHT22;27171;51.812;19.514;2022-10-23T07:01:47;13.30;99.90
41427;DHT22;27171;51.812;19.514;2022-10-23T07:04:49;13.30;99.90
41427;DHT22;27171;51.812;19.514;2022-10-23T07:07:53;13.30;99.90
41427;DHT22;27171;51.812;19.514;2022-10-23T07:11:08;13.30;99.90
41427;DHT22;27171;51.812;19.514;2022-10-23T07:14:09;13.30;99.90
41427;DHT22;27171;51.812;19.514;2022-10-23T07:17:11;13.30;99.90
41427;DHT22;27171;51.812;19.514;2022-10-23T07:20:12;13.30;99.90
41427;DHT22;27171;51.812;19.514;2022-10-23T07:23:14;13.30;99.90
41427;DHT22;27171;51.812;19.514;2022-10-23T07:26:16;13.30;99.90
41427;DHT22;27171;51.812;19.514;2022-10-23T07:29:17;13.40;99.90
41427;DHT22;27171;51.812;19.514;2022-10-23T07:32:19;13.40;99.90
41427;DHT22;27171;51.812;19.514;2022-10-23T07:35:49;13.40;99.90
41427;DHT22;27171;51.812;19.514;2022-10-23T07:38:58;13.40;99.90
41427;DHT22;27171;51.812;19.514;2022-10-23T07:41:59;13.40;99.90
41427;DHT22;27171;51.812;19.514;2022-10-23T07:45:00;13.40;99.90
41427;DHT22;27171;51.812;19.514;2022-10-23T07:48:02;13.40;99.90
41427;DHT22;27171;51.812;19.514;2022-10-23T07:51:18;13.40;99.90
41427;DHT22;27171;51.812;19.514;2022-10-23T07:54:24;13.40;99.90
41427;DHT22;27171;51.812;19.514;2022-10-23T07:57:51;13.50;99.90
41427;DHT22;27171;51.812;19.514;2022-10-23T08:01:16;13.50;99.90
41427;DHT22;27171;51.812;19.514;2022-10-23T08:04:19;13.60;99.90
41427;DHT22;27171;51.812;19.514;2022-10-23T08:07:34;13.60;99.90
41427;DHT22;27171;51.812;19.514;2022-10-23T08:10:35;13.70;99.90
41427;DHT22;27171;51.812;19.514;2022-10-23T08:13:37;13.70;99.90
41427;DHT22;27171;51.812;19.514;2022-10-23T08:16:40;13.70;99.90
41427;DHT22;27171;51.812;19.514;2022-10-23T08:19:42;13.70;99.90
41427;DHT22;27171;51.812;19.514;2022-10-23T08:22:44;13.70;99.90
41427;DHT22;27171;51.812;19.514;2022-10-23T08:25:56;13.70;99.90
41427;DHT22;27171;51.812;19.514;2022-10-23T08:28:59;13.80;99.90
41427;DHT22;27171;51.812;19.514;2022-10-23T08:32:01;13.80;99.90
41427;DHT22;27171;51.812;19.514;2022-10-23T08:35:22;13.90;99.90
41427;DHT22;27171;51.812;19.514;2022-10-23T08:38:23;13.80;99.90
41427;DHT22;27171;51.812;19.514;2022-10-23T08:41:35;13.80;99.90
41427;DHT22;27171;51.812;19.514;2022-10-23T08:45:06;13.80;99.90
41427;DHT22;27171;51.812;19.514;2022-10-23T08:51:53;13.70;99.90
41427;DHT22;27171;51.812;19.514;2022-10-23T09:05:34;13.60;99.90
41427;DHT22;27171;51.812;19.514;2022-10-23T09:15:26;13.60;99.90
41427;DHT22;27171;51.812;19.514;2022-10-23T09:18:29;13.60;99.90
41427;DHT22;27171;51.812;19.514;2022-10-23T09:21:31;13.60;99.90
41427;DHT22;27171;51.812;19.514;2022-10-23T09:24:32;13.60;99.90
41427;DHT22;27171;51.812;19.514;2022-10-23T09:27:34;13.60;99.90
41427;DHT22;27171;51.812;19.514;2022-10-23T09:30:40;13.70;99.90
41427;DHT22;27171;51.812;19.514;2022-10-23T09:33:53;13.70;99.90
41427;DHT22;27171;51.812;19.514;2022-10-23T09:37:02;13.70;99.90
41427;DHT22;27171;51.812;19.514;2022-10-23T09:43:33;13.80;99.90
41427;DHT22;27171;51.812;19.514;2022-10-23T09:50:24;14.00;99.90
41427;DHT22;27171;51.812;19.514;2022-10-23T09:53:49;14.00;99.90
41427;DHT22;27171;51.812;19.514;2022-10-23T09:56:52;14.10;99.90
41427;DHT22;27171;51.812;19.514;2022-10-23T10:00:16;14.20;99.90
41427;DHT22;27171;51.812;19.514;2022-10-23T10:03:22;14.30;99.90
41427;DHT22;27171;51.812;19.514;2022-10-23T10:06:37;14.30;99.90
41427;DHT22;27171;51.812;19.514;2022-10-23T10:09:38;14.40;99.90
41427;DHT22;27171;51.812;19.514;2022-10-23T10:12:49;14.50;99.90
41427;DHT22;27171;51.812;19.514;2022-10-23T10:16:02;14.60;99.90
41427;DHT22;27171;51.812;19.514;2022-10-23T10:19:44;14.60;99.90
41427;DHT22;27171;51.812;19.514;2022-10-23T10:23:09;14.60;99.90
41427;DHT22;27171;51.812;19.514;2022-10-23T10:36:23;14.70;99.90
41427;DHT22;27171;51.812;19.514;2022-10-23T10:49:58;14.40;99.90
41427;DHT22;27171;51.812;19.514;2022-10-23T10:53:39;14.40;99.90
41427;DHT22;27171;51.812;19.514;2022-10-23T10:56:44;14.30;99.90
41427;DHT22;27171;51.812;19.514;2022-10-23T10:59:50;14.30;99.90
41427;DHT22;27171;51.812;19.514;2022-10-23T11:06:23;14.40;99.90
41427;DHT22;27171;51.812;19.514;2022-10-23T11:09:29;14.40;99.90
41427;DHT22;27171;51.812;19.514;2022-10-23T11:12:32;14.50;99.90
41427;DHT22;27171;51.812;19.514;2022-10-23T11:15:38;14.50;99.90
41427;DHT22;27171;51.812;19.514;2022-10-23T11:18:43;14.50;99.90
41427;DHT22;27171;51.812;19.514;2022-10-23T11:28:48;14.60;99.90
41427;DHT22;27171;51.812;19.514;2022-10-23T11:38:40;14.70;99.90
41427;DHT22;27171;51.812;19.514;2022-10-23T11:41:49;14.70;99.90
41427;DHT22;27171;51.812;19.514;2022-10-23T11:44:51;14.80;99.90
41427;DHT22;27171;51.812;19.514;2022-10-23T11:51:30;14.90;99.90
41427;DHT22;27171;51.812;19.514;2022-10-23T11:54:32;14.80;99.90
41427;DHT22;27171;51.812;19.514;2022-10-23T11:57:33;14.90;99.90
41427;DHT22;27171;51.812;19.514;2022-10-23T12:00:39;15.00;99.90
41427;DHT22;27171;51.812;19.514;2022-10-23T12:07:01;15.10;99.90
41427;DHT22;27171;51.812;19.514;2022-10-23T12:10:28;15.30;99.90
41427;DHT22;27171;51.812;19.514;2022-10-23T12:13:44;15.40;99.90
41427;DHT22;27171;51.812;19.514;2022-10-23T12:16:46;15.60;99.90
41427;DHT22;27171;51.812;19.514;2022-10-23T12:19:53;15.70;99.90
41427;DHT22;27171;51.812;19.514;2022-10-23T12:26:22;15.70;99.90
41427;DHT22;27171;51.812;19.514;2022-10-23T12:39:31;15.70;99.90
41427;DHT22;27171;51.812;19.514;2022-10-23T12:42:33;15.70;99.90
41427;DHT22;27171;51.812;19.514;2022-10-23T12:45:38;15.70;99.90
41427;DHT22;27171;51.812;19.514;2022-10-23T12:48:50;15.70;99.90
41427;DHT22;27171;51.812;19.514;2022-10-23T12:52:03;15.80;99.90
41427;DHT22;27171;51.812;19.514;2022-10-23T12:55:12;15.80;99.90
41427;DHT22;27171;51.812;19.514;2022-10-23T12:58:22;15.80;99.90
41427;DHT22;27171;51.812;19.514;2022-10-23T13:01:32;15.90;99.90
41427;DHT22;27171;51.812;19.514;2022-10-23T13:04:34;15.90;99.90
41427;DHT22;27171;51.812;19.514;2022-10-23T13:07:42;15.80;99.90
41427;DHT22;27171;51.812;19.514;2022-10-23T13:10:45;15.80;99.90
41427;DHT22;27171;51.812;19.514;2022-10-23T13:13:50;15.80;99.90
41427;DHT22;27171;51.812;19.514;2022-10-23T13:16:59;15.70;99.90
41427;DHT22;27171;51.812;19.514;2022-10-23T13:23:32;15.60;99.90
41427;DHT22;27171;51.812;19.514;2022-10-23T13:26:37;15.60;99.90
41427;DHT22;27171;51.812;19.514;2022-10-23T13:29:41;15.60;99.90
41427;DHT22;27171;51.812;19.514;2022-10-23T13:32:42;15.70;99.90
41427;DHT22;27171;51.812;19.514;2022-10-23T13:36:47;15.70;99.90
41427;DHT22;27171;51.812;19.514;2022-10-23T13:39:14;15.70;99.90
41427;DHT22;27171;51.812;19.514;2022-10-23T13:42:16;15.60;99.90
41427;DHT22;27171;51.812;19.514;2022-10-23T13:45:25;15.60;99.90
41427;DHT22;27171;51.812;19.514;2022-10-23T13:48:27;15.60;99.90
41427;DHT22;27171;51.812;19.514;2022-10-23T13:51:29;15.50;99.90
41427;DHT22;27171;51.812;19.514;2022-10-23T13:54:32;15.50;99.90
41427;DHT22;27171;51.812;19.514;2022-10-23T13:57:33;15.60;99.90
41427;DHT22;27171;51.812;19.514;2022-10-23T14:00:36;15.70;99.90
41427;DHT22;27171;51.812;19.514;2022-10-23T14:03:38;15.70;99.90
41427;DHT22;27171;51.812;19.514;2022-10-23T14:06:39;15.70;99.90
41427;DHT22;27171;51.812;19.514;2022-10-23T14:09:40;15.80;99.90
41427;DHT22;27171;51.812;19.514;2022-10-23T14:12:42;15.80;99.90
41427;DHT22;27171;51.812;19.514;2022-10-23T14:15:52;15.80;99.90
41427;DHT22;27171;51.812;19.514;2022-10-23T14:18:53;15.90;99.90
41427;DHT22;27171;51.812;19.514;2022-10-23T14:21:55;15.90;99.90
41427;DHT22;27171;51.812;19.514;2022-10-23T14:24:56;15.90;99.90
41427;DHT22;27171;51.812;19.514;2022-10-23T14:27:57;15.90;99.90
41427;DHT22;27171;51.812;19.514;2022-10-23T14:31:10;15.90;99.90
41427;DHT22;27171;51.812;19.514;2022-10-23T14:34:11;15.90;99.90
41427;DHT22;27171;51.812;19.514;2022-10-23T14:37:13;15.80;99.90
41427;DHT22;27171;51.812;19.514;2022-10-23T14:40:14;15.80;99.90
41427;DHT22;27171;51.812;19.514;2022-10-23T14:43:15;15.80;99.90
41427;DHT22;27171;51.812;19.514;2022-10-23T14:46:19;15.80;99.90
41427;DHT22;27171;51.812;19.514;2022-10-23T14:49:21;15.80;99.90
41427;DHT22;27171;51.812;19.514;2022-10-23T14:52:22;15.80;99.90
41427;DHT22;27171;51.812;19.514;2022-10-23T14:55:24;15.80;99.90
41427;DHT22;27171;51.812;19.514;2022-10-23T14:58:25;15.70;99.90
41427;DHT22;27171;51.812;19.514;2022-10-23T15:01:33;15.70;99.90
41427;DHT22;27171;51.812;19.514;2022-10-23T15:04:35;15.60;99.90
41427;DHT22;27171;51.812;19.514;2022-10-23T15:07:37;15.50;99.90
41427;DHT22;27171;51.812;19.514;2022-10-23T15:10:39;15.40;99.90
41427;DHT22;27171;51.812;19.514;2022-10-23T15:13:41;15.30;99.90
41427;DHT22;27171;51.812;19.514;2022-10-23T15:16:43;15.20;99.90
41427;DHT22;27171;51.812;19.514;2022-10-23T15:19:44;15.00;99.90
41427;DHT22;27171;51.812;19.514;2022-10-23T15:22:45;14.90;99.90
41427;DHT22;27171;51.812;19.514;2022-10-23T15:25:57;14.70;99.90
41427;DHT22;27171;51.812;19.514;2022-10-23T15:29:01;14.60;99.90
41427;DHT22;27171;51.812;19.514;2022-10-23T15:32:04;14.40;99.90
41427;DHT22;27171;51.812;19.514;2022-10-23T15:35:06;14.30;99.90
41427;DHT22;27171;51.812;19.514;2022-10-23T15:38:07;14.10;99.90
41427;DHT22;27171;51.812;19.514;2022-10-23T15:41:14;14.00;99.90
41427;DHT22;27171;51.812;19.514;2022-10-23T15:44:18;13.80;99.90
41427;DHT22;27171;51.812;19.514;2022-10-23T15:47:20;13.60;99.90
41427;DHT22;27171;51.812;19.514;2022-10-23T15:50:22;13.50;99.90
41427;DHT22;27171;51.812;19.514;2022-10-23T15:53:23;13.30;99.90
41427;DHT22;27171;51.812;19.514;2022-10-23T15:56:38;13.20;99.90
41427;DHT22;27171;51.812;19.514;2022-10-23T15:59:39;13.10;99.90
41427;DHT22;27171;51.812;19.514;2022-10-23T16:02:41;12.90;99.90
41427;DHT22;27171;51.812;19.514;2022-10-23T16:05:43;12.80;99.90
41427;DHT22;27171;51.812;19.514;2022-10-23T16:08:44;12.70;99.90
41427;DHT22;27171;51.812;19.514;2022-10-23T16:11:46;12.60;99.90
41427;DHT22;27171;51.812;19.514;2022-10-23T16:14:47;12.40;99.90
41427;DHT22;27171;51.812;19.514;2022-10-23T16:17:48;12.30;99.90
41427;DHT22;27171;51.812;19.514;2022-10-23T16:20:50;12.20;99.90
41427;DHT22;27171;51.812;19.514;2022-10-23T16:23:53;12.10;99.90
41427;DHT22;27171;51.812;19.514;2022-10-23T16:26:54;12.00;99.90
41427;DHT22;27171;51.812;19.514;2022-10-23T16:29:56;11.90;99.90
41427;DHT22;27171;51.812;19.514;2022-10-23T16:32:57;11.80;99.90
41427;DHT22;27171;51.812;19.514;2022-10-23T16:36:05;11.70;99.90
41427;DHT22;27171;51.812;19.514;2022-10-23T16:39:26;11.70;99.90
41427;DHT22;27171;51.812;19.514;2022-10-23T16:42:42;11.60;99.90
41427;DHT22;27171;51.812;19.514;2022-10-23T16:46:20;11.50;99.90
41427;DHT22;27171;51.812;19.514;2022-10-23T16:49:24;11.50;99.90
41427;DHT22;27171;51.812;19.514;2022-10-23T16:52:28;11.40;99.90
41427;DHT22;27171;51.812;19.514;2022-10-23T16:55:29;11.30;99.90
41427;DHT22;27171;51.812;19.514;2022-10-23T16:58:31;11.20;99.90
41427;DHT22;27171;51.812;19.514;2022-10-23T17:01:33;11.20;99.90
41427;DHT22;27171;51.812;19.514;2022-10-23T17:04:35;11.10;99.90
41427;DHT22;27171;51.812;19.514;2022-10-23T17:07:37;11.00;99.90
41427;DHT22;27171;51.812;19.514;2022-10-23T17:10:38;11.00;99.90
41427;DHT22;27171;51.812;19.514;2022-10-23T17:13:43;10.90;99.90
41427;DHT22;27171;51.812;19.514;2022-10-23T17:16:47;10.80;99.90
41427;DHT22;27171;51.812;19.514;2022-10-23T17:19:49;10.70;99.90
41427;DHT22;27171;51.812;19.514;2022-10-23T17:22:51;10.60;99.90
41427;DHT22;27171;51.812;19.514;2022-10-23T17:25:59;10.50;99.90
41427;DHT22;27171;51.812;19.514;2022-10-23T17:29:03;10.40;99.90
41427;DHT22;27171;51.812;19.514;2022-10-23T17:32:05;10.40;99.90
41427;DHT22;27171;51.812;19.514;2022-10-23T17:35:07;10.30;99.90
41427;DHT22;27171;51.812;19.514;2022-10-23T17:38:08;10.20;99.90
41427;DHT22;27171;51.812;19.514;2022-10-23T17:41:12;10.10;99.90
41427;DHT22;27171;51.812;19.514;2022-10-23T17:44:14;10.10;99.90
41427;DHT22;27171;51.812;19.514;2022-10-23T17:47:16;10.00;99.90
41427;DHT22;27171;51.812;19.514;2022-10-23T17:50:18;9.90;99.90
41427;DHT22;27171;51.812;19.514;2022-10-23T17:53:19;9.80;99.90
41427;DHT22;27171;51.812;19.514;2022-10-23T17:56:23;9.80;99.90
41427;DHT22;27171;51.812;19.514;2022-10-23T17:59:25;9.70;99.90
41427;DHT22;27171;51.812;19.514;2022-10-23T18:02:26;9.70;99.90
41427;DHT22;27171;51.812;19.514;2022-10-23T18:05:30;9.60;99.90
41427;DHT22;27171;51.812;19.514;2022-10-23T18:08:32;9.50;99.90
41427;DHT22;27171;51.812;19.514;2022-10-23T18:11:37;9.50;99.90
41427;DHT22;27171;51.812;19.514;2022-10-23T18:14:38;9.40;99.90
41427;DHT22;27171;51.812;19.514;2022-10-23T18:17:39;9.40;99.90
41427;DHT22;27171;51.812;19.514;2022-10-23T18:20:40;9.30;99.90
41427;DHT22;27171;51.812;19.514;2022-10-23T18:23:42;9.20;99.90
41427;DHT22;27171;51.812;19.514;2022-10-23T18:26:44;9.20;99.90
41427;DHT22;27171;51.812;19.514;2022-10-23T18:29:45;9.20;99.90
41427;DHT22;27171;51.812;19.514;2022-10-23T18:32:46;9.10;99.90
41427;DHT22;27171;51.812;19.514;2022-10-23T18:35:47;9.10;99.90
41427;DHT22;27171;51.812;19.514;2022-10-23T18:38:50;9.00;99.90
41427;DHT22;27171;51.812;19.514;2022-10-23T18:41:53;9.00;99.90
41427;DHT22;27171;51.812;19.514;2022-10-23T18:44:54;8.90;99.90
41427;DHT22;27171;51.812;19.514;2022-10-23T18:47:55;8.90;99.90
41427;DHT22;27171;51.812;19.514;2022-10-23T18:50:58;8.80;99.90
41427;DHT22;27171;51.812;19.514;2022-10-23T18:54:04;8.80;99.90
41427;DHT22;27171;51.812;19.514;2022-10-23T18:57:06;8.80;99.90
41427;DHT22;27171;51.812;19.514;2022-10-23T19:00:09;8.80;99.90
41427;DHT22;27171;51.812;19.514;2022-10-23T19:03:11;8.80;99.90
41427;DHT22;27171;51.812;19.514;2022-10-23T19:06:13;8.80;99.90
41427;DHT22;27171;51.812;19.514;2022-10-23T19:09:16;8.70;99.90
41427;DHT22;27171;51.812;19.514;2022-10-23T19:12:18;8.70;99.90
41427;DHT22;27171;51.812;19.514;2022-10-23T19:15:19;8.70;99.90
41427;DHT22;27171;51.812;19.514;2022-10-23T19:18:21;8.70;99.90
41427;DHT22;27171;51.812;19.514;2022-10-23T19:21:25;8.60;99.90
41427;DHT22;27171;51.812;19.514;2022-10-23T19:24:44;8.70;99.90
41427;DHT22;27171;51.812;19.514;2022-10-23T19:27:47;8.70;99.90
41427;DHT22;27171;51.812;19.514;2022-10-23T19:30:49;8.70;99.90
41427;DHT22;27171;51.812;19.514;2022-10-23T19:33:51;8.70;99.90
41427;DHT22;27171;51.812;19.514;2022-10-23T19:36:53;8.70;99.90
41427;DHT22;27171;51.812;19.514;2022-10-23T19:39:55;8.70;99.90
41427;DHT22;27171;51.812;19.514;2022-10-23T19:42:57;8.60;99.90
41427;DHT22;27171;51.812;19.514;2022-10-23T19:46:02;8.60;99.90
41427;DHT22;27171;51.812;19.514;2022-10-23T19:49:04;8.60;99.90
41427;DHT22;27171;51.812;19.514;2022-10-23T19:52:06;8.50;99.90
41427;DHT22;27171;51.812;19.514;2022-10-23T19:55:07;8.50;99.90
41427;DHT22;27171;51.812;19.514;2022-10-23T19:58:09;8.50;99.90
41427;DHT22;27171;51.812;19.514;2022-10-23T20:01:16;8.50;99.90
41427;DHT22;27171;51.812;19.514;2022-10-23T20:04:17;8.50;99.90
41427;DHT22;27171;51.812;19.514;2022-10-23T20:07:19;8.40;99.90
41427;DHT22;27171;51.812;19.514;2022-10-23T20:10:20;8.40;99.90
41427;DHT22;27171;51.812;19.514;2022-10-23T20:13:21;8.40;99.90
41427;DHT22;27171;51.812;19.514;2022-10-23T20:16:28;8.40;99.90
41427;DHT22;27171;51.812;19.514;2022-10-23T20:19:30;8.30;99.90
41427;DHT22;27171;51.812;19.514;2022-10-23T20:22:31;8.30;99.90
41427;DHT22;27171;51.812;19.514;2022-10-23T20:25:33;8.30;99.90
41427;DHT22;27171;51.812;19.514;2022-10-23T20:28:34;8.30;99.90
41427;DHT22;27171;51.812;19.514;2022-10-23T20:31:36;8.30;99.90
41427;DHT22;27171;51.812;19.514;2022-10-23T20:34:38;8.30;99.90
41427;DHT22;27171;51.812;19.514;2022-10-23T20:37:39;8.30;99.90
41427;DHT22;27171;51.812;19.514;2022-10-23T20:40:40;8.30;99.90
41427;DHT22;27171;51.812;19.514;2022-10-23T20:43:42;8.30;99.90
41427;DHT22;27171;51.812;19.514;2022-10-23T20:46:43;8.30;99.90
41427;DHT22;27171;51.812;19.514;2022-10-23T20:49:44;8.30;99.90
41427;DHT22;27171;51.812;19.514;2022-10-23T20:52:46;8.40;99.90
41427;DHT22;27171;51.812;19.514;2022-10-23T20:55:47;8.40;99.90
41427;DHT22;27171;51.812;19.514;2022-10-23T20:58:49;8.50;99.90
41427;DHT22;27171;51.812;19.514;2022-10-23T21:01:51;8.50;99.90
41427;DHT22;27171;51.812;19.514;2022-10-23T21:04:53;8.60;99.90
41427;DHT22;27171;51.812;19.514;2022-10-23T21:07:55;8.70;99.90
41427;DHT22;27171;51.812;19.514;2022-10-23T21:10:56;8.70;99.90